CST,Max TemperatureF,Mean TemperatureF,Min TemperatureF,Max Dew PointF,MeanDew PointF,Min DewpointF,Max Humidity, Mean Humidity, Min Humidity, Max Sea Level PressureIn, Mean Sea Level PressureIn, Min Sea Level PressureIn, Max VisibilityMiles, Mean VisibilityMiles, Min VisibilityMiles, Max Wind SpeedMPH, Mean Wind SpeedMPH, Max Gust SpeedMPH,PrecipitationIn, CloudCover, Events, WindDirDegrees
2013-2-1,35,22,10,16,7,1,73,53,30,30.46,30.32,30.18,10,10,10,15,8,21,0.00,1,,91
2013-2-2,50,38,26,28,22,12,64,56,40,30.22,30.18,30.15,10,10,10,15,7,24,0.00,2,,235
2013-2-3,51,44,37,28,23,16,65,46,26,30.26,30.13,30.00,10,10,10,17,9,24,0.00,1,,259
2013-2-4,57,48,37,41,31,21,81,57,35,29.99,29.92,29.84,10,10,4,17,7,28,0.00,3,Rain,253
2013-2-5,62,47,32,36,31,27,93,64,26,30.09,30.00,29.93,10,10,10,13,2,18,0.00,0,,327
2013-2-6,59,48,37,37,32,28,87,63,42,30.17,30.07,30.00,10,10,10,16,6,21,0.00,2,,120
2013-2-7,57,49,41,50,43,37,100,90,67,30.06,29.97,29.88,10,7,0,16,8,23,0.00,6,Fog-Rain,72
2013-2-8,48,40,32,37,31,28,93,78,46,30.30,30.21,30.07,10,8,4,18,12,22,0.00,4,,31
2013-2-9,37,34,32,36,32,27,100,90,75,30.26,30.11,29.91,10,6,2,21,12,30,0.01,8,Rain,122
2013-2-10,60,48,37,50,34,23,100,69,27,30.02,29.82,29.66,10,6,1,20,11,31,0.51,4,Rain-Thunderstorm,207
2013-2-11,50,42,33,27,23,19,65,53,30,30.19,30.11,30.02,10,10,10,13,6,18,0.00,0,,284
2013-2-12,53,42,30,34,27,21,100,75,41,30.15,30.04,29.90,10,8,1,12,3,,0.65,5,Rain-Snow,30
2013-2-13,48,40,32,34,30,27,100,76,46,29.99,29.94,29.92,10,7,0,12,5,17,0.71,4,Rain-Snow,265
2013-2-14,55,47,39,32,29,25,65,55,38,30.14,30.01,29.94,10,10,10,12,8,,0.00,3,,275
2013-2-15,42,34,26,28,18,9,75,52,30,30.30,30.23,30.14,10,10,10,16,8,22,0.00,3,,305
2013-2-16,37,30,24,21,15,9,80,54,33,30.31,30.21,30.14,10,10,10,10,5,17,0.00,7,Snow,256
2013-2-17,62,47,32,32,23,16,57,46,22,30.13,30.00,29.87,10,10,10,14,7,18,0.00,2,,148
2013-2-18,57,44,32,50,34,25,82,62,41,30.09,29.86,29.61,10,10,4,22,12,31,0.00,5,Rain-Thunderstorm,227
2013-2-19,41,34,28,23,15,9,69,51,26,30.29,30.21,30.09,10,10,10,16,9,28,0.00,0,,310
2013-2-20,32,29,26,16,12,9,59,50,38,30.32,30.22,30.10,10,10,7,15,5,21,0.00,5,Rain,104
2013-2-21,32,29,26,32,25,14,100,87,55,30.13,29.90,29.73,10,6,0,25,13,32,0.01,8,Rain-Snow,123
2013-2-22,35,29,23,32,23,18,100,79,56,30.09,29.98,29.82,10,10,6,12,7,18,0.00,4,,290
2013-2-23,41,31,21,23,20,16,93,71,42,30.09,30.02,29.95,10,9,5,9,2,,0.00,2,,342
2013-2-24,53,40,26,32,28,19,93,68,44,30.03,29.96,29.90,10,10,10,16,6,24,0.00,1,,114
2013-2-25,48,40,32,37,31,27,100,81,46,29.91,29.67,29.41,10,8,1,21,10,30,0.07,5,Rain-Thunderstorm,77
2013-2-26,35,34,32,34,30,28,100,93,81,29.84,29.56,29.32,10,6,0,17,8,26,0.98,8,Fog-Rain-Snow,306
2013-2-27,35,34,32,28,26,25,87,78,65,30.03,29.93,29.81,10,9,5,17,9,26,0.00,8,,289
2013-2-28,35,32,30,25,24,21,80,73,65,30.17,30.09,30.01,10,9,7,14,10,22,0.00,6,,305